createdAt,value
2017-11-19T00:02:15.468Z,79.30
2017-11-19T00:04:43.153Z,79.10
2017-11-19T00:07:10.778Z,79.20
2017-11-19T00:09:38.451Z,79.00
2017-11-19T00:12:06.103Z,79.40
2017-11-19T00:14:33.719Z,79.80
2017-11-19T00:17:01.374Z,80.50
2017-11-19T00:19:29.007Z,79.90
2017-11-19T00:21:56.624Z,79.80
2017-11-19T00:24:24.272Z,80.50
2017-11-19T00:26:51.879Z,80.60
2017-11-19T00:29:20.299Z,80.90
2017-11-19T00:31:47.935Z,80.80
2017-11-19T00:34:15.559Z,79.50
2017-11-19T00:36:43.999Z,79.80
2017-11-19T00:39:11.693Z,79.80
2017-11-19T00:41:40.320Z,80.30
2017-11-19T00:44:07.941Z,80.00
2017-11-19T00:46:35.575Z,79.30
2017-11-19T00:49:03.239Z,79.90
2017-11-19T00:51:30.851Z,79.30
2017-11-19T00:53:58.519Z,80.60
2017-11-19T00:56:26.146Z,80.00
2017-11-19T00:58:54.525Z,81.00
2017-11-19T01:01:22.955Z,80.30
2017-11-19T01:03:50.578Z,80.30
2017-11-19T01:06:18.244Z,80.70
2017-11-19T01:08:45.867Z,80.10
2017-11-19T01:11:13.484Z,80.00
2017-11-19T01:13:41.147Z,80.30
2017-11-19T01:16:08.764Z,80.70
2017-11-19T01:18:37.167Z,79.60
2017-11-19T01:21:04.787Z,79.60
2017-11-19T01:23:32.397Z,79.00
2017-11-19T01:26:00.054Z,79.30
2017-11-19T01:28:28.437Z,80.50
2017-11-19T01:30:56.096Z,79.70
2017-11-19T01:33:23.718Z,79.70
2017-11-19T01:35:52.104Z,80.20
2017-11-19T01:38:19.757Z,80.10
2017-11-19T01:40:47.459Z,80.00
2017-11-19T01:43:15.118Z,80.10
2017-11-19T01:45:43.496Z,80.40
2017-11-19T01:48:11.884Z,81.10
2017-11-19T01:50:39.541Z,81.10
2017-11-19T01:53:07.185Z,80.90
2017-11-19T01:55:35.596Z,80.00
2017-11-19T01:58:03.213Z,80.00
2017-11-19T02:00:30.876Z,80.00
2017-11-19T02:02:58.520Z,79.70
2017-11-19T02:05:26.144Z,79.20
2017-11-19T02:07:54.585Z,79.30
2017-11-19T02:10:22.207Z,79.20
2017-11-19T02:12:49.829Z,78.50
2017-11-19T02:15:17.479Z,78.30
2017-11-19T02:17:45.083Z,78.90
2017-11-19T02:20:13.497Z,78.30
2017-11-19T02:22:41.187Z,77.50
2017-11-19T02:25:08.832Z,78.20
2017-11-19T02:27:36.486Z,77.80
2017-11-19T02:30:04.101Z,79.10
2017-11-19T02:32:31.756Z,78.70
2017-11-19T02:34:59.374Z,77.90
2017-11-19T02:37:26.989Z,78.10
2017-11-19T02:39:55.401Z,77.60
2017-11-19T02:42:23.013Z,77.60
2017-11-19T02:44:50.666Z,77.90
2017-11-19T02:47:18.296Z,77.20
2017-11-19T02:49:45.921Z,77.00
2017-11-19T02:52:14.368Z,78.00
2017-11-19T02:54:41.983Z,78.00
2017-11-19T02:57:10.399Z,77.40
2017-11-19T02:59:38.012Z,77.40
2017-11-19T03:02:05.631Z,77.30
2017-11-19T03:04:34.034Z,78.00
2017-11-19T03:07:01.663Z,78.00
2017-11-19T03:09:29.357Z,77.80
2017-11-19T03:11:56.984Z,77.10
2017-11-19T03:14:24.630Z,77.40
2017-11-19T03:16:52.280Z,78.80
2017-11-19T03:19:19.895Z,78.00
2017-11-19T03:21:47.557Z,77.70
2017-11-19T03:24:15.173Z,78.10
2017-11-19T03:26:43.545Z,77.70
2017-11-19T03:29:11.188Z,77.80
2017-11-19T03:31:38.805Z,77.90
2017-11-19T03:34:07.227Z,77.60
2017-11-19T03:36:34.866Z,77.50
2017-11-19T03:39:02.483Z,77.90
2017-11-19T03:41:30.920Z,77.70
2017-11-19T03:43:58.538Z,77.70
2017-11-19T03:46:26.185Z,77.40
2017-11-19T03:48:53.795Z,77.00
2017-11-19T03:51:21.407Z,78.00
2017-11-19T03:53:49.052Z,78.10
2017-11-19T03:56:17.436Z,77.80
2017-11-19T03:58:45.091Z,77.80
2017-11-19T04:01:12.699Z,78.00
2017-11-19T04:03:40.311Z,78.30
2017-11-19T04:06:07.956Z,78.00
2017-11-19T04:08:35.625Z,78.30
2017-11-19T04:11:03.272Z,78.70
2017-11-19T04:13:30.896Z,78.00
2017-11-19T04:15:58.536Z,78.10
2017-11-19T04:18:26.174Z,78.30
2017-11-19T04:20:53.791Z,78.10
2017-11-19T04:23:21.439Z,78.00
2017-11-19T04:25:49.055Z,77.60
2017-11-19T04:28:16.668Z,78.60
2017-11-19T04:30:44.325Z,77.40
2017-11-19T04:33:11.952Z,78.50
2017-11-19T04:35:39.621Z,78.40
2017-11-19T04:38:07.240Z,78.10
2017-11-19T04:40:34.851Z,77.80
2017-11-19T04:43:03.263Z,78.50
2017-11-19T04:45:30.870Z,78.50
2017-11-19T04:47:59.293Z,78.20
2017-11-19T04:50:26.899Z,78.20
2017-11-19T04:52:54.509Z,77.90
2017-11-19T04:55:22.152Z,77.20
2017-11-19T04:57:49.771Z,77.70
2017-11-19T05:00:17.432Z,77.50
2017-11-19T05:02:45.043Z,77.70
2017-11-19T05:05:12.655Z,77.70
2017-11-19T05:07:41.107Z,76.40
2017-11-19T05:10:08.719Z,76.30
2017-11-19T05:12:36.362Z,76.20
2017-11-19T05:15:03.990Z,75.40
2017-11-19T05:17:31.607Z,75.30
2017-11-19T05:20:00.028Z,75.90
2017-11-19T05:22:27.635Z,75.90
2017-11-19T05:24:55.288Z,76.00
2017-11-19T05:27:22.911Z,75.80
2017-11-19T05:29:51.301Z,77.50
2017-11-19T05:32:18.951Z,77.40
2017-11-19T05:34:46.563Z,78.00
2017-11-19T05:37:15.045Z,78.30
2017-11-19T05:39:42.681Z,78.20
2017-11-19T05:42:11.127Z,79.20
2017-11-19T05:44:38.778Z,79.10
2017-11-19T05:47:07.178Z,80.10
2017-11-19T05:49:34.822Z,79.60
2017-11-19T05:52:02.479Z,79.90
2017-11-19T05:54:30.089Z,80.10
2017-11-19T05:56:58.520Z,81.30
2017-11-19T05:59:26.127Z,81.30
2017-11-19T06:01:53.775Z,81.10
2017-11-19T06:04:21.428Z,82.40
2017-11-19T06:06:49.048Z,81.30
2017-11-19T06:09:17.500Z,81.30
2017-11-19T06:11:45.122Z,81.30
2017-11-19T06:14:12.775Z,81.80
2017-11-19T06:16:40.433Z,81.80
2017-11-19T06:19:08.068Z,82.10
2017-11-19T06:21:35.681Z,82.50
2017-11-19T06:24:03.364Z,82.80
2017-11-19T06:26:30.985Z,82.60
2017-11-19T06:28:58.595Z,82.90
2017-11-19T06:31:26.241Z,83.10
2017-11-19T06:33:53.885Z,82.90
2017-11-19T06:36:21.523Z,83.30
2017-11-19T06:38:49.196Z,83.60
2017-11-19T06:41:16.827Z,83.50
2017-11-19T06:43:44.443Z,84.10
2017-11-19T06:46:12.896Z,83.30
2017-11-19T06:48:40.504Z,83.30
2017-11-19T06:51:08.136Z,83.30
2017-11-19T06:53:35.788Z,82.90
2017-11-19T06:56:03.420Z,82.20
2017-11-19T06:58:31.080Z,81.70
2017-11-19T07:00:58.697Z,80.80
2017-11-19T07:03:27.082Z,80.50
2017-11-19T07:05:54.723Z,80.30
2017-11-19T07:08:22.343Z,81.10
2017-11-19T07:10:50.790Z,80.50
2017-11-19T07:13:19.187Z,80.70
2017-11-19T07:15:46.808Z,80.60
2017-11-19T07:18:14.679Z,81.20
2017-11-19T07:20:43.057Z,80.80
2017-11-19T07:23:10.759Z,80.80
2017-11-19T07:25:39.179Z,81.70
2017-11-19T07:28:06.818Z,81.70
2017-11-19T07:30:34.585Z,80.20
2017-11-19T07:33:02.663Z,79.50
2017-11-19T07:35:30.359Z,79.40
2017-11-19T07:37:58.483Z,77.90
2017-11-19T07:40:26.100Z,77.20
2017-11-19T07:42:53.751Z,76.60
2017-11-19T07:45:21.396Z,76.80
2017-11-19T07:47:49.025Z,76.40
2017-11-19T07:50:16.785Z,76.50
2017-11-19T07:52:44.411Z,75.40
2017-11-19T07:55:12.061Z,75.90
2017-11-19T07:57:39.699Z,74.70
2017-11-19T08:00:07.445Z,74.10
2017-11-19T08:02:35.097Z,74.80
2017-11-19T08:05:02.765Z,73.50
2017-11-19T08:07:31.180Z,71.30
2017-11-19T08:09:58.820Z,71.20
2017-11-19T08:12:26.440Z,70.30
2017-11-19T08:14:54.100Z,70.30
2017-11-19T08:17:21.721Z,70.90
2017-11-19T08:19:49.355Z,70.40
2017-11-19T08:22:16.980Z,70.50
2017-11-19T08:24:44.583Z,70.50
2017-11-19T08:27:12.239Z,69.80
2017-11-19T08:29:39.990Z,69.10
2017-11-19T08:32:07.647Z,67.70
2017-11-19T08:34:35.283Z,67.70
2017-11-19T08:37:02.913Z,68.50
2017-11-19T08:39:30.598Z,68.80
2017-11-19T08:41:58.220Z,68.40
2017-11-19T08:44:25.869Z,67.80
2017-11-19T08:46:53.480Z,67.50
2017-11-19T08:49:23.265Z,68.70
2017-11-19T08:51:51.764Z,66.80
2017-11-19T08:54:19.394Z,66.80
2017-11-19T08:56:47.824Z,67.60
2017-11-19T08:59:15.710Z,67.50
2017-11-19T09:01:44.116Z,66.60
2017-11-19T09:04:11.772Z,66.60
2017-11-19T09:06:39.388Z,66.70
2017-11-19T09:09:07.035Z,65.60
2017-11-19T09:11:34.665Z,65.70
2017-11-19T09:14:03.035Z,66.30
2017-11-19T09:16:31.440Z,63.90
2017-11-19T09:18:59.061Z,63.90
2017-11-19T09:21:26.703Z,64.80
2017-11-19T09:23:54.415Z,64.50
2017-11-19T09:26:22.031Z,63.10
2017-11-19T09:28:49.672Z,65.80
2017-11-19T09:31:17.291Z,66.40
2017-11-19T09:33:44.930Z,65.70
2017-11-19T09:36:12.630Z,66.00
2017-11-19T09:38:40.252Z,66.70
2017-11-19T09:41:07.907Z,66.50
2017-11-19T09:43:35.527Z,65.80
2017-11-19T09:46:03.173Z,64.70
2017-11-19T09:48:30.799Z,66.00
2017-11-19T09:50:59.171Z,64.40
2017-11-19T09:53:26.824Z,64.40
2017-11-19T09:55:54.437Z,65.00
2017-11-19T09:58:22.145Z,64.20
2017-11-19T10:00:49.770Z,64.60
2017-11-19T10:03:17.389Z,63.10
2017-11-19T10:05:45.796Z,63.70
2017-11-19T10:08:13.415Z,63.70
2017-11-19T10:10:41.255Z,65.40
2017-11-19T10:13:09.635Z,64.10
2017-11-19T10:15:37.243Z,63.70
2017-11-19T10:18:04.923Z,62.50
2017-11-19T10:20:32.539Z,62.40
2017-11-19T10:23:00.184Z,62.40
2017-11-19T10:25:27.791Z,64.10
2017-11-19T10:27:55.541Z,63.70
2017-11-19T10:30:23.190Z,63.20
2017-11-19T10:32:50.813Z,65.10
2017-11-19T10:35:18.483Z,64.60
2017-11-19T10:37:46.152Z,64.10
2017-11-19T10:40:13.793Z,63.20
2017-11-19T10:42:41.458Z,64.70
2017-11-19T10:45:09.109Z,63.80
2017-11-19T10:47:49.755Z,57.60
2017-11-19T10:50:27.800Z,57.50
2017-11-19T10:52:59.979Z,59.20
2017-11-19T10:55:29.232Z,58.50
2017-11-19T10:58:06.553Z,59.20
2017-11-19T11:00:35.022Z,58.10
2017-11-19T11:03:02.680Z,57.50
2017-11-19T11:05:30.372Z,59.10
2017-11-19T11:07:57.992Z,59.00
2017-11-19T11:10:25.677Z,60.80
2017-11-19T11:12:53.295Z,60.80
2017-11-19T11:15:20.968Z,60.90
2017-11-19T11:17:48.625Z,61.60
2017-11-19T11:20:16.281Z,59.50
2017-11-19T11:22:43.968Z,59.80
2017-11-19T11:25:11.615Z,60.10
2017-11-19T11:27:39.248Z,59.10
2017-11-19T11:30:06.902Z,61.40
2017-11-19T11:32:35.290Z,60.60
2017-11-19T11:35:04.726Z,60.50
2017-11-19T11:37:34.259Z,61.10
2017-11-19T11:40:01.913Z,61.00
2017-11-19T11:42:29.606Z,61.60
2017-11-19T11:44:57.221Z,59.50
2017-11-19T11:47:24.860Z,61.40
2017-11-19T11:49:52.548Z,62.20
2017-11-19T11:52:20.184Z,59.60
2017-11-19T11:54:47.833Z,60.60
2017-11-19T11:57:15.474Z,60.40
2017-11-19T11:59:43.163Z,61.30
2017-11-19T12:02:11.549Z,59.20
2017-11-19T12:04:39.774Z,59.20
2017-11-19T12:07:10.198Z,59.00
2017-11-19T12:09:38.628Z,59.00
2017-11-19T12:12:06.604Z,58.90
2017-11-19T12:14:35.153Z,59.20
2017-11-19T12:17:03.303Z,60.60
2017-11-19T12:19:31.707Z,59.10
2017-11-19T12:21:59.456Z,58.70
2017-11-19T12:24:27.871Z,60.10
2017-11-19T12:26:55.488Z,60.10
2017-11-19T12:29:23.108Z,60.40
2017-11-19T12:31:52.186Z,61.60
2017-11-19T12:34:20.580Z,62.20
2017-11-19T12:36:48.261Z,62.20
2017-11-19T12:39:15.881Z,61.90
2017-11-19T12:41:43.497Z,63.40
2017-11-19T12:44:11.911Z,61.10
2017-11-19T12:46:39.524Z,61.10
2017-11-19T12:49:07.208Z,62.30
2017-11-19T12:51:34.834Z,60.60
2017-11-19T12:54:02.504Z,61.40
2017-11-19T12:56:30.170Z,61.30
2017-11-19T12:58:57.828Z,60.80
2017-11-19T13:01:25.495Z,61.90
2017-11-19T13:03:53.867Z,62.90
2017-11-19T13:06:21.476Z,62.80
2017-11-19T13:08:49.135Z,63.20
2017-11-19T13:11:16.747Z,62.50
2017-11-19T13:13:45.215Z,62.50
2017-11-19T13:16:13.626Z,62.40
2017-11-19T13:18:42.018Z,63.40
2017-11-19T13:21:09.656Z,63.30
2017-11-19T13:23:37.271Z,64.60
2017-11-19T13:26:05.684Z,66.50
2017-11-19T13:28:33.297Z,66.40
2017-11-19T13:31:00.920Z,66.30
2017-11-19T13:33:28.579Z,65.90
2017-11-19T13:35:56.956Z,72.20
2017-11-19T13:38:25.368Z,75.40
2017-11-19T13:40:53.052Z,75.40
2017-11-19T13:43:21.435Z,78.20
2017-11-19T13:45:49.072Z,78.10
2017-11-19T13:48:16.683Z,79.50
2017-11-19T13:50:44.353Z,80.10
2017-11-19T13:53:12.768Z,85.90
2017-11-19T13:55:40.408Z,85.10
2017-11-19T13:58:08.057Z,84.70
2017-11-19T14:00:35.673Z,86.40
2017-11-19T14:03:04.091Z,88.90
2017-11-19T14:05:31.818Z,89.00
2017-11-19T14:07:59.457Z,90.10
2017-11-19T14:10:27.109Z,90.50
2017-11-19T14:12:54.729Z,91.10
2017-11-19T14:15:22.387Z,91.90
2017-11-19T14:17:50.031Z,91.60
2017-11-19T14:20:17.653Z,91.70
2017-11-19T14:22:45.315Z,91.00
2017-11-19T14:25:12.962Z,90.80
2017-11-19T14:27:40.615Z,91.30
2017-11-19T14:30:08.239Z,90.60
2017-11-19T14:32:36.643Z,88.80
2017-11-19T14:35:04.299Z,88.80
2017-11-19T14:37:31.915Z,88.60
2017-11-19T14:39:59.602Z,89.10
2017-11-19T14:42:27.218Z,88.60
2017-11-19T14:44:54.844Z,89.10
2017-11-19T14:47:22.482Z,90.50
2017-11-19T14:49:50.863Z,89.20
2017-11-19T14:52:19.274Z,89.00
2017-11-19T14:54:47.001Z,88.90
2017-11-19T14:57:14.623Z,89.30
2017-11-19T14:59:42.323Z,88.10
2017-11-19T15:02:10.008Z,88.20
2017-11-19T15:04:37.708Z,87.20
2017-11-19T15:07:05.441Z,88.30
2017-11-19T15:09:33.054Z,87.70
2017-11-19T15:12:01.468Z,89.00
2017-11-19T15:14:29.088Z,89.00
2017-11-19T15:16:56.745Z,89.70
2017-11-19T15:19:24.364Z,91.00
2017-11-19T15:21:51.995Z,92.90
2017-11-19T15:24:20.400Z,95.40
2017-11-19T15:26:48.077Z,95.40
2017-11-19T15:29:24.097Z,96.20
2017-11-19T15:31:52.727Z,95.90
2017-11-19T15:34:25.008Z,98.30
2017-11-19T15:36:54.321Z,98.10
2017-11-19T15:39:35.316Z,98.10
2017-11-19T15:42:02.957Z,97.80
2017-11-19T15:44:30.581Z,98.40
2017-11-19T15:46:58.227Z,99.40
2017-11-19T15:49:25.852Z,99.40
2017-11-19T15:51:54.459Z,99.10
2017-11-19T15:54:22.096Z,99.80
2017-11-19T15:56:50.427Z,99.90
2017-11-19T15:59:18.104Z,99.90
2017-11-19T16:01:48.740Z,99.90
2017-11-19T16:04:17.152Z,99.90
2017-11-19T16:06:44.824Z,99.90
2017-11-19T16:09:12.516Z,99.90
2017-11-19T16:11:40.176Z,99.90
2017-11-19T16:14:07.801Z,99.90
2017-11-19T16:16:35.536Z,99.90
2017-11-19T16:19:03.194Z,99.90
2017-11-19T16:21:31.582Z,99.90
2017-11-19T16:23:59.404Z,99.90
2017-11-19T16:26:27.819Z,99.90
2017-11-19T16:28:55.477Z,99.90
2017-11-19T16:31:23.110Z,99.90
2017-11-19T16:33:50.760Z,99.90
2017-11-19T16:36:18.434Z,99.90
2017-11-19T16:38:46.054Z,99.90
2017-11-19T16:41:13.701Z,99.90
2017-11-19T16:43:41.327Z,99.90
2017-11-19T16:46:08.952Z,99.20
2017-11-19T16:48:41.771Z,98.00
2017-11-19T16:51:16.658Z,97.90
2017-11-19T16:53:44.565Z,98.40
2017-11-19T16:56:12.205Z,97.70
2017-11-19T16:58:39.832Z,97.80
2017-11-19T17:01:07.720Z,96.80
2017-11-19T17:03:35.494Z,96.30
2017-11-19T17:06:03.163Z,95.70
2017-11-19T17:08:30.789Z,97.00
2017-11-19T17:10:58.400Z,98.20
2017-11-19T17:13:26.220Z,97.30
2017-11-19T17:15:53.845Z,98.30
2017-11-19T17:18:21.488Z,99.10
2017-11-19T17:20:49.141Z,99.90
2017-11-19T17:23:18.690Z,99.90
2017-11-19T17:25:47.121Z,99.90
2017-11-19T17:28:24.412Z,99.90
2017-11-19T17:30:52.926Z,99.80
2017-11-19T17:33:20.736Z,99.90
2017-11-19T17:35:54.887Z,99.90
2017-11-19T17:38:22.542Z,99.90
2017-11-19T17:40:50.163Z,99.90
2017-11-19T17:43:18.440Z,99.90
2017-11-19T17:45:46.053Z,99.40
2017-11-19T17:48:18.344Z,99.90
2017-11-19T17:50:46.388Z,99.90
2017-11-19T17:53:14.107Z,99.90
2017-11-19T17:58:26.982Z,99.90
2017-11-19T18:00:54.600Z,99.90
2017-11-19T18:03:22.227Z,99.90
2017-11-19T18:05:49.869Z,99.90
2017-11-19T18:08:17.494Z,99.90
2017-11-19T18:10:45.944Z,99.90
2017-11-19T18:13:13.585Z,99.90
2017-11-19T18:15:41.236Z,99.90
2017-11-19T18:18:08.900Z,99.90
2017-11-19T18:20:36.535Z,99.90
2017-11-19T18:23:04.219Z,99.90
2017-11-19T18:25:31.863Z,99.90
2017-11-19T18:27:59.491Z,99.90
2017-11-19T18:33:01.344Z,99.90
2017-11-19T18:35:29.755Z,99.90
2017-11-19T18:37:57.372Z,99.90
2017-11-19T18:40:24.997Z,99.90
2017-11-19T18:42:53.437Z,99.90
2017-11-19T18:45:21.575Z,99.90
2017-11-19T18:47:49.902Z,99.90
2017-11-19T18:50:17.626Z,99.90
2017-11-19T18:52:46.214Z,99.90
2017-11-19T18:55:13.923Z,99.90
2017-11-19T18:57:42.394Z,99.90
2017-11-19T19:00:10.045Z,99.90
2017-11-19T19:02:37.724Z,99.90
2017-11-19T19:05:05.375Z,99.90
2017-11-19T19:07:33.052Z,99.90
2017-11-19T19:10:00.684Z,99.90
2017-11-19T19:12:31.439Z,99.90
2017-11-19T19:14:59.125Z,99.90
2017-11-19T19:17:29.653Z,99.90
2017-11-19T19:19:57.293Z,99.90
2017-11-19T19:22:24.912Z,99.90
2017-11-19T19:24:53.322Z,99.90
2017-11-19T19:27:20.972Z,99.90
2017-11-19T19:29:48.594Z,99.90
2017-11-19T19:32:16.291Z,99.90
2017-11-19T19:34:43.926Z,99.90
2017-11-19T19:37:11.581Z,99.90
2017-11-19T19:39:39.310Z,99.90
2017-11-19T19:42:06.928Z,99.90
2017-11-19T19:44:34.607Z,99.90
2017-11-19T19:47:02.270Z,99.90
2017-11-19T19:49:29.959Z,99.90
2017-11-19T19:51:57.598Z,99.90
2017-11-19T19:54:25.299Z,99.90
2017-11-19T19:56:52.956Z,99.90
2017-11-19T19:59:21.451Z,99.90
2017-11-19T20:01:49.968Z,99.90
2017-11-19T20:04:17.622Z,99.90
2017-11-19T20:06:45.265Z,99.90
2017-11-19T20:09:14.539Z,99.90
2017-11-19T20:11:43.073Z,99.90
2017-11-19T20:14:11.079Z,99.90
2017-11-19T20:16:39.583Z,99.90
2017-11-19T20:19:07.392Z,99.90
2017-11-19T20:21:35.249Z,99.90
2017-11-19T20:24:03.359Z,99.90
2017-11-19T20:26:31.051Z,99.90
2017-11-19T20:28:58.735Z,99.90
2017-11-19T20:31:27.255Z,99.90
2017-11-19T20:33:54.934Z,99.90
2017-11-19T20:36:22.686Z,99.90
2017-11-19T20:38:50.426Z,99.90
2017-11-19T20:41:18.085Z,99.90
2017-11-19T20:43:46.479Z,99.90
2017-11-19T20:46:14.130Z,99.90
2017-11-19T20:48:41.870Z,99.90
2017-11-19T20:51:09.518Z,99.90
2017-11-19T20:53:37.146Z,99.90
2017-11-19T20:56:08.157Z,99.90
2017-11-19T20:58:36.512Z,99.90
2017-11-19T21:01:04.252Z,99.90
2017-11-19T21:03:32.000Z,99.90
2017-11-19T21:05:59.683Z,99.90
2017-11-19T21:08:28.061Z,99.90
2017-11-19T21:10:55.703Z,99.90
2017-11-19T21:13:24.084Z,99.90
2017-11-19T21:15:51.746Z,99.90
2017-11-19T21:18:19.370Z,99.90
2017-11-19T21:20:46.994Z,99.90
2017-11-19T21:23:15.412Z,99.00
2017-11-19T21:25:43.048Z,99.10
2017-11-19T21:28:10.864Z,99.70
2017-11-19T21:30:42.012Z,99.90
2017-11-19T21:33:10.050Z,99.90
2017-11-19T21:35:37.668Z,97.10
2017-11-19T21:38:05.583Z,97.90
2017-11-19T21:40:33.240Z,97.80
2017-11-19T21:43:00.877Z,98.00
2017-11-19T21:45:28.527Z,96.80
2017-11-19T21:47:56.147Z,96.60
2017-11-19T21:50:23.764Z,96.30
2017-11-19T21:52:51.423Z,96.50
2017-11-19T21:55:19.814Z,96.10
2017-11-19T21:57:47.462Z,96.00
2017-11-19T22:00:15.082Z,96.90
2017-11-19T22:02:42.725Z,95.80
2017-11-19T22:05:10.375Z,96.40
2017-11-19T22:07:38.761Z,95.80
2017-11-19T22:10:06.420Z,95.90
2017-11-19T22:12:34.041Z,95.40
2017-11-19T22:15:01.661Z,95.50
2017-11-19T22:17:30.079Z,94.60
2017-11-19T22:19:57.702Z,94.20
2017-11-19T22:22:25.349Z,94.30
2017-11-19T22:24:52.966Z,95.00
2017-11-19T22:27:21.406Z,94.10
2017-11-19T22:29:49.056Z,94.10
2017-11-19T22:32:16.711Z,93.90
2017-11-19T22:34:44.510Z,94.40
2017-11-19T22:37:12.135Z,92.70
2017-11-19T22:39:39.784Z,93.00
2017-11-19T22:42:07.462Z,93.80
2017-11-19T22:44:35.101Z,94.00
2017-11-19T22:47:02.745Z,92.90
2017-11-19T22:49:30.373Z,93.00
2017-11-19T22:51:57.988Z,92.40
2017-11-19T22:54:25.638Z,91.80
2017-11-19T22:56:53.256Z,92.30
2017-11-19T22:59:20.922Z,92.80
2017-11-19T23:01:48.548Z,92.90
2017-11-19T23:04:16.206Z,93.00
2017-11-19T23:06:43.873Z,92.80
2017-11-19T23:09:11.531Z,92.40
2017-11-19T23:11:40.056Z,92.60
2017-11-19T23:14:07.686Z,92.60
2017-11-19T23:16:35.319Z,92.70
2017-11-19T23:19:03.624Z,92.50
2017-11-19T23:21:31.239Z,93.30
2017-11-19T23:23:58.944Z,93.80
2017-11-19T23:26:27.322Z,94.40
2017-11-19T23:28:55.707Z,94.20
2017-11-19T23:31:23.379Z,94.20
2017-11-19T23:33:51.079Z,94.80
2017-11-19T23:36:18.812Z,94.80
2017-11-19T23:38:46.418Z,94.30
2017-11-19T23:41:14.071Z,92.70
2017-11-19T23:43:41.727Z,93.10
2017-11-19T23:46:09.339Z,92.90
2017-11-19T23:48:37.005Z,93.00
2017-11-19T23:51:04.625Z,93.70
2017-11-19T23:53:32.254Z,94.30
2017-11-19T23:55:59.912Z,93.90
2017-11-19T23:58:27.526Z,93.80
